Time;durP1;ratioP1;P1;durP2;ratioP2;P2;SDS_P1;SDS_P2;PMS_P1;PMS_P2;Temp;Humidity;BMP_temperature;BMP_pressure;BME280_temperature;BME280_humidity;BME280_pressure;Samples;Min_cycle;Max_cycle;Signal;HPM_P1;HPM_P2
2022/08/22 00:02:05;;;;;;;12.60;5.95;;;;;;;15.64;93.69;101533.22;5024756;28;20029;-69
2022/08/22 00:04:46;;;;;;;11.38;6.50;;;;;;;15.64;92.56;101530.47;5021769;28;20033;-68
2022/08/22 00:07:34;;;;;;;16.55;7.43;;;;;;;15.56;92.53;101526.13;5019850;28;20556;-68
2022/08/22 00:10:42;;;;;;;14.10;7.45;;;;;;;15.56;93.35;101526.97;5021006;28;20298;-69
2022/08/22 00:13:18;;;;;;;15.48;7.72;;;;;;;15.55;93.63;101536.34;5012678;28;20033;-68
2022/08/22 00:15:55;;;;;;;17.70;8.23;;;;;;;15.49;93.42;101526.28;5021200;28;20027;-69
2022/08/22 00:18:45;;;;;;;15.07;7.72;;;;;;;15.57;94.26;101533.34;5038508;28;20064;-68
2022/08/22 00:21:22;;;;;;;16.52;7.85;;;;;;;15.54;93.39;101537.44;5040169;28;20053;-69
2022/08/22 00:23:52;;;;;;;16.80;8.50;;;;;;;15.57;93.69;101533.34;5041984;28;20053;-68
2022/08/22 00:26:38;;;;;;;14.27;8.60;;;;;;;15.63;94.28;101537.06;5041499;28;20029;-68
2022/08/22 00:29:10;;;;;;;22.23;9.80;;;;;;;15.59;93.77;101536.72;5041659;28;20039;-68
2022/08/22 00:31:50;;;;;;;16.30;8.68;;;;;;;15.60;94.15;101538.38;5041298;28;20021;-68
2022/08/22 00:34:23;;;;;;;15.70;7.65;;;;;;;15.56;93.95;101535.28;5038413;28;20372;-68
2022/08/22 00:37:01;;;;;;;17.95;8.90;;;;;;;15.56;94.83;101538.06;5020473;28;20036;-69
2022/08/22 00:39:34;;;;;;;;;;;;;;;15.72;91.64;101542.00;5022184;28;20030;-68
2022/08/22 00:42:37;;;;;;;16.50;8.68;;;;;;;15.60;94.15;101532.84;5024219;28;19928;-68
2022/08/22 00:45:26;;;;;;;17.67;8.60;;;;;;;15.63;94.06;101537.06;5024395;28;20633;-68
2022/08/22 00:48:23;;;;;;;17.42;8.50;;;;;;;15.58;94.72;101535.03;5024746;28;20036;-69
2022/08/22 00:50:58;;;;;;;16.95;8.93;;;;;;;15.54;94.49;101534.69;5039640;28;20396;-69
2022/08/22 00:53:41;;;;;;;17.77;9.40;;;;;;;15.56;95.50;101531.66;5044916;28;20037;-69
2022/08/22 00:56:37;;;;;;;17.15;9.40;;;;;;;15.61;95.24;101537.28;5044763;28;20036;-68
2022/08/22 00:59:16;;;;;;;17.45;8.82;;;;;;;15.57;95.41;101538.91;5043962;28;20040;-68
2022/08/22 01:02:09;;;;;;;20.40;10.90;;;;;;;15.55;95.25;101536.34;5044941;28;20021;-68
2022/08/22 01:04:46;;;;;;;18.88;10.45;;;;;;;15.51;95.26;101537.97;5044331;28;20025;-68
2022/08/22 01:07:40;;;;;;;20.33;10.60;;;;;;;15.51;95.30;101540.72;5029399;28;20128;-69
2022/08/22 01:10:40;;;;;;;20.27;11.20;;;;;;;15.52;95.22;101545.19;5024272;28;20266;-69
2022/08/22 01:13:51;;;;;;;23.50;11.63;;;;;;;15.53;95.23;101540.47;5023313;28;20410;-68
2022/08/22 01:16:59;;;;;;;21.40;11.82;;;;;;;15.50;95.46;101539.03;5024935;28;20056;-68
2022/08/22 01:20:01;;;;;;;29.92;15.50;;;;;;;15.47;95.19;101535.94;5025134;28;20021;-68
2022/08/22 01:22:58;;;;;;;23.45;13.40;;;;;;;15.49;95.38;101531.81;5024901;28;20053;-69
2022/08/22 01:26:04;;;;;;;25.95;13.93;;;;;;;15.55;95.31;101529.97;5023542;28;20037;-68
2022/08/22 01:28:50;;;;;;;24.38;13.10;;;;;;;15.64;96.05;101539.59;5023757;28;20476;-68
2022/08/22 01:32:00;;;;;;;24.08;13.07;;;;;;;15.72;95.74;101535.63;5024322;28;20539;-69
2022/08/22 01:34:49;;;;;;;24.52;12.77;;;;;;;15.69;95.48;101536.94;5024560;28;20506;-69
2022/08/22 01:37:33;;;;;;;24.60;13.35;;;;;;;15.64;94.78;101533.22;5023544;28;20033;-68
2022/08/22 01:40:34;;;;;;;21.77;12.95;;;;;;;15.66;95.57;101534.69;5023591;28;20029;-69
2022/08/22 01:43:29;;;;;;;21.88;13.80;;;;;;;15.68;94.87;101532.50;5023183;28;20025;-69
2022/08/22 01:46:25;;;;;;;26.23;15.13;;;;;;;15.70;95.81;101530.31;5023812;28;20081;-69
2022/08/22 01:48:58;;;;;;;26.38;16.20;;;;;;;15.70;95.19;101532.22;5023915;28;20029;-69
2022/08/22 01:51:38;;;;;;;24.70;14.95;;;;;;;15.69;95.88;101527.78;5022574;28;20026;-70
2022/08/22 01:54:11;;;;;;;27.90;14.68;;;;;;;15.67;95.90;101529.97;5023386;28;20036;-69
2022/08/22 01:56:42;;;;;;;25.48;14.57;;;;;;;15.65;95.69;101529.38;5023731;28;20064;-69
2022/08/22 01:59:13;;;;;;;24.48;15.63;;;;;;;15.67;95.38;101521.69;5022852;28;20091;-68
2022/08/22 02:01:55;;;;;;;27.45;15.65;;;;;;;15.71;95.34;101523.69;5024002;28;20028;-69
2022/08/22 02:04:46;;;;;;;25.77;16.08;;;;;;;15.70;94.81;101523.94;5023323;28;20115;-68
2022/08/22 02:07:31;;;;;;;24.15;15.38;;;;;;;15.73;94.96;101531.75;5023415;28;20114;-69
2022/08/22 02:10:18;;;;;;;32.05;16.17;;;;;;;15.71;95.17;101528.38;5023174;28;20056;-70
2022/08/22 02:12:51;;;;;;;25.40;16.83;;;;;;;15.67;95.30;101524.44;5023190;28;20455;-69
2022/08/22 02:15:28;;;;;;;29.90;16.50;;;;;;;15.65;95.91;101523.84;5040632;28;20040;-69
2022/08/22 02:18:05;;;;;;;30.67;16.38;;;;;;;15.69;96.38;101525.03;5062770;28;20115;-69
2022/08/22 02:20:55;;;;;;;30.93;15.43;;;;;;;15.72;95.69;101527.31;5062157;28;20123;-69
2022/08/22 02:23:51;;;;;;;26.58;16.52;;;;;;;15.77;95.44;101525.47;5062980;28;20051;-69
2022/08/22 02:26:22;;;;;;;33.25;16.55;;;;;;;15.75;95.19;101516.56;5063082;28;20029;-69
2022/08/22 02:28:56;;;;;;;34.47;18.20;;;;;;;15.73;94.81;101520.69;5063436;28;20032;-69
2022/08/22 02:31:24;;;;;;;27.42;18.00;;;;;;;15.74;95.26;101527.88;5062537;28;20356;-69
2022/08/22 02:33:55;;;;;;;35.15;17.45;;;;;;;15.77;95.06;101528.25;5042255;28;20027;-69
2022/08/22 02:36:49;;;;;;;30.92;16.90;;;;;;;15.83;95.05;101520.88;5021957;28;20218;-69
2022/08/22 02:39:35;;;;;;;32.92;17.15;;;;;;;15.75;95.08;101519.31;5022971;28;20077;-68
2022/08/22 02:42:37;;;;;;;28.23;16.23;;;;;;;15.73;95.78;101515.97;5023131;28;20049;-69
2022/08/22 02:45:37;;;;;;;29.90;16.42;;;;;;;15.67;96.12;101516.97;5022608;28;20484;-69
2022/08/22 02:48:31;;;;;;;29.35;17.90;;;;;;;15.64;96.40;101511.09;5022627;28;20400;-69
2022/08/22 02:51:20;;;;;;;35.50;17.55;;;;;;;15.57;96.51;101511.22;5041645;28;20032;-69
2022/08/22 02:53:53;;;;;;;34.83;18.20;;;;;;;15.56;97.21;101503.97;5042676;28;20108;-68
2022/08/22 02:56:44;;;;;;;28.58;17.83;;;;;;;15.63;97.42;101517.69;5043230;28;20035;-68
2022/08/22 02:59:20;;;;;;;28.10;18.48;;;;;;;15.54;97.50;101518.06;5041835;28;20032;-69
2022/08/22 03:01:46;;;;;;;33.45;19.08;;;;;;;15.53;97.55;101515.56;5042740;28;20027;-69
2022/08/22 03:04:45;;;;;;;32.03;18.88;;;;;;;15.61;97.29;101509.59;5041481;28;20613;-69
2022/08/22 03:07:19;;;;;;;32.88;19.60;;;;;;;15.60;98.33;101515.41;5056911;28;20411;-69
2022/08/22 03:09:47;;;;;;;33.58;18.48;;;;;;;15.61;97.92;101508.75;5061919;28;20039;-69
2022/08/22 03:12:23;;;;;;;38.50;20.05;;;;;;;15.63;98.03;101501.06;5061778;28;20031;-69
2022/08/22 03:14:54;;;;;;;33.67;20.30;;;;;;;15.74;97.75;101508.50;5061829;28;20395;-69
2022/08/22 03:17:33;;;;;;;32.47;18.63;;;;;;;15.66;97.62;101514.44;5062700;28;20028;-69
2022/08/22 03:20:12;;;;;;;31.45;17.63;;;;;;;15.66;97.72;101500.59;5060533;28;20530;-69
2022/08/22 03:22:58;;;;;;;32.10;17.80;;;;;;;15.70;97.09;101499.00;5062206;28;20020;-69
2022/08/22 03:25:42;;;;;;;30.02;17.98;;;;;;;15.68;97.04;101496.50;5037090;28;20333;-69
2022/08/22 03:28:17;;;;;;;29.50;17.33;;;;;;;15.65;97.06;101501.69;5021511;28;20033;-69
2022/08/22 03:30:58;;;;;;;36.55;17.23;;;;;;;15.64;97.45;101489.75;5022236;28;20484;-69
2022/08/22 03:33:26;;;;;;;29.75;18.15;;;;;;;15.55;97.27;101486.50;5021758;28;20026;-68
2022/08/22 03:36:04;;;;;;;27.73;18.00;;;;;;;15.53;98.13;101488.72;5020457;28;20025;-69
2022/08/22 03:38:32;;;;;;;33.15;17.73;;;;;;;15.47;98.09;101489.72;5021866;28;20044;-69
2022/08/22 03:41:06;;;;;;;;;;;;;;;15.55;96.18;101486.50;5033210;28;20509;-69
2022/08/22 03:43:55;;;;;;;39.97;19.27;;;;;;;15.42;98.44;101483.22;5062179;28;20003;-69
2022/08/22 03:46:20;;;;;;;35.53;18.85;;;;;;;15.35;97.89;101482.53;5061555;28;20445;-69
2022/08/22 03:49:00;;;;;;;34.80;18.37;;;;;;;15.28;98.69;101485.44;5062420;28;20622;-69
2022/08/22 03:51:54;;;;;;;32.45;18.00;;;;;;;15.27;99.37;101484.59;5060761;28;20100;-69
2022/08/22 03:54:34;;;;;;;32.55;19.15;;;;;;;15.24;99.56;101485.09;5062341;28;20024;-69
2022/08/22 03:57:04;;;;;;;32.78;19.15;;;;;;;15.19;99.08;101487.75;5060816;28;20081;-69
2022/08/22 03:59:46;;;;;;;33.78;19.30;;;;;;;15.17;98.88;101478.88;5042807;28;20029;-69
2022/08/22 04:02:32;;;;;;;36.45;20.08;;;;;;;15.15;99.15;101482.97;5020896;28;20032;-69
2022/08/22 04:05:28;;;;;;;33.58;20.20;;;;;;;15.13;99.41;101485.13;5020862;28;20029;-69
2022/08/22 04:08:06;;;;;;;34.03;19.05;;;;;;;15.03;99.15;101481.06;5021183;28;20056;-70
2022/08/22 04:10:50;;;;;;;;;;;;;;;15.13;97.51;101480.44;5022401;28;20076;-69
2022/08/22 04:13:57;;;;;;;35.75;19.38;;;;;;;14.97;99.36;101475.69;5022037;28;19952;-69
2022/08/22 04:16:25;;;;;;;40.00;20.70;;;;;;;14.80;99.23;101486.69;5035658;28;20028;-69
2022/08/22 04:19:12;;;;;;;31.45;20.27;;;;;;;14.75;99.52;101487.41;5067631;28;20839;-70
2022/08/22 04:21:59;;;;;;;39.08;19.65;;;;;;;14.68;99.76;101486.69;5067195;28;20035;-69
2022/08/22 04:24:41;;;;;;;36.92;20.77;;;;;;;14.72;100.00;101493.41;5067575;28;20527;-69
2022/08/22 04:27:28;;;;;;;40.05;20.67;;;;;;;14.70;100.00;101486.41;5068118;28;20416;-69
2022/08/22 04:30:33;;;;;;;34.53;19.75;;;;;;;14.70;100.00;101494.72;5067869;28;20025;-69
2022/08/22 04:33:22;;;;;;;34.65;19.90;;;;;;;14.68;100.00;101483.91;5054472;28;20033;-69
2022/08/22 04:36:09;;;;;;;34.58;19.13;;;;;;;14.65;100.00;101498.25;5047467;28;20036;-70
2022/08/22 04:38:46;;;;;;;30.42;19.63;;;;;;;14.65;100.00;101489.94;5047818;28;20088;-69
2022/08/22 04:41:23;;;;;;;36.85;20.17;;;;;;;14.70;100.00;101483.66;5047042;28;20033;-69
2022/08/22 04:44:00;;;;;;;38.38;20.27;;;;;;;14.75;100.00;101492.06;5048341;28;20025;-69
2022/08/22 04:46:44;;;;;;;39.88;20.42;;;;;;;14.79;100.00;101484.97;5047046;28;20329;-69
2022/08/22 04:49:34;;;;;;;39.53;20.38;;;;;;;14.85;100.00;101492.31;5050924;28;20028;-69
2022/08/22 04:52:21;;;;;;;39.13;20.33;;;;;;;14.85;100.00;101497.84;5067466;28;20411;-69
2022/08/22 04:55:11;;;;;;;41.72;19.48;;;;;;;14.88;100.00;101496.50;5067153;28;20313;-69
2022/08/22 04:58:47;;;;;;;38.25;19.75;;;;;;;14.94;100.00;101504.66;5067775;28;20043;-69
2022/08/22 05:01:19;;;;;;;37.70;20.10;;;;;;;14.96;100.00;101509.97;4928399;28;20062;-69
2022/08/22 05:04:00;;;;;;;38.50;20.65;;;;;;;14.99;100.00;101510.31;5054157;28;20071;-69
2022/08/22 05:06:30;;;;;;;34.47;19.85;;;;;;;14.98;100.00;101513.31;5064937;28;20100;-70
2022/08/22 05:09:01;;;;;;;36.03;21.20;;;;;;;14.98;100.00;101522.47;5066876;28;20120;-70
2022/08/22 05:11:29;;;;;;;38.17;20.85;;;;;;;15.00;100.00;101512.00;5067149;28;20372;-69
2022/08/22 05:13:58;;;;;;;36.15;19.80;;;;;;;15.05;100.00;101516.78;5066889;28;20028;-69
2022/08/22 05:16:31;;;;;;;36.38;20.98;;;;;;;15.10;100.00;101518.81;5067441;28;20110;-70
2022/08/22 05:19:05;;;;;;;33.15;19.88;;;;;;;15.13;100.00;101513.66;5066403;28;20028;-70
2022/08/22 05:21:35;;;;;;;34.13;19.95;;;;;;;15.20;100.00;101521.78;5066467;28;20028;-69
2022/08/22 05:24:07;;;;;;;35.45;19.92;;;;;;;15.26;100.00;101521.69;5067199;28;20378;-69
2022/08/22 05:26:39;;;;;;;35.03;18.90;;;;;;;15.30;100.00;101513.72;5027914;28;20420;-69
2022/08/22 05:29:07;;;;;;;32.92;20.08;;;;;;;15.31;99.95;101519.00;5024390;28;20032;-69
2022/08/22 05:31:40;;;;;;;34.88;19.55;;;;;;;15.35;99.57;101524.88;5024530;28;20049;-69
2022/08/22 05:34:31;;;;;;;39.05;20.33;;;;;;;15.40;99.07;101522.22;5023912;28;20053;-69
2022/08/22 05:37:03;;;;;;;37.97;21.30;;;;;;;15.41;99.13;101528.59;5023285;28;20022;-70
2022/08/22 05:39:30;;;;;;;36.00;20.85;;;;;;;15.46;99.35;101535.09;5023959;28;20312;-70
2022/08/22 05:41:59;;;;;;;37.92;22.13;;;;;;;15.52;99.89;101528.56;5039194;28;20029;-69
2022/08/22 05:44:33;;;;;;;36.95;20.27;;;;;;;15.61;99.94;101539.22;5063454;28;20377;-70
2022/08/22 05:47:03;;;;;;;36.95;20.17;;;;;;;15.65;99.77;101537.69;5063141;28;20051;-69
2022/08/22 05:49:39;;;;;;;30.90;18.80;;;;;;;15.72;100.00;101533.69;5062487;28;20048;-69
2022/08/22 05:52:16;;;;;;;39.28;20.60;;;;;;;15.76;100.00;101536.78;5063574;28;20032;-70
2022/08/22 05:54:52;;;;;;;36.58;19.65;;;;;;;15.83;100.00;101535.53;5063636;28;20021;-69
2022/08/22 05:58:12;;;;;;;34.30;19.98;;;;;;;15.93;100.00;101529.34;5063884;28;20032;-69
2022/08/22 06:00:42;;;;;;;31.42;18.15;;;;;;;15.95;100.00;101529.09;5030300;28;20131;-69
2022/08/22 06:03:30;;;;;;;29.10;18.30;;;;;;;16.01;100.00;101531.69;5062990;28;20220;-69
2022/08/22 06:06:01;;;;;;;26.55;17.77;;;;;;;16.04;100.00;101522.91;5062377;28;20017;-69
2022/08/22 06:08:45;;;;;;;27.67;17.70;;;;;;;16.16;100.00;101528.34;5062937;28;20487;-69
2022/08/22 06:11:18;;;;;;;28.27;17.00;;;;;;;16.21;100.00;101527.59;5062909;28;20040;-69
2022/08/22 06:13:50;;;;;;;23.50;17.42;;;;;;;16.26;100.00;101531.28;5061876;28;20483;-69
2022/08/22 06:16:21;;;;;;;24.90;15.52;;;;;;;16.40;100.00;101528.19;5050072;28;20108;-69
2022/08/22 06:18:49;;;;;;;23.77;15.95;;;;;;;16.44;100.00;101532.97;5043620;28;20043;-69
2022/08/22 06:21:25;;;;;;;19.23;14.30;;;;;;;16.51;100.00;101532.78;5042556;28;20017;-70
2022/08/22 06:23:57;;;;;;;21.08;14.80;;;;;;;16.65;100.00;101538.84;5043207;28;20017;-69
2022/08/22 06:26:25;;;;;;;20.55;14.27;;;;;;;16.70;98.73;101536.16;5042596;28;20256;-70
2022/08/22 06:28:56;;;;;;;17.95;13.25;;;;;;;16.75;97.51;101545.41;5043458;28;20028;-69
2022/08/22 06:31:48;;;;;;;19.95;13.60;;;;;;;16.82;96.85;101545.22;5043302;28;20100;-70
2022/08/22 06:34:23;;;;;;;18.85;13.32;;;;;;;16.80;97.10;101544.66;5039038;28;20032;-69
2022/08/22 06:36:51;;;;;;;19.48;13.93;;;;;;;16.87;97.45;101542.50;5043212;28;20021;-69
2022/08/22 06:39:20;;;;;;;16.77;12.98;;;;;;;16.92;97.63;101547.31;5042869;28;20040;-69
2022/08/22 06:41:56;;;;;;;19.17;13.32;;;;;;;17.01;96.24;101551.31;5025089;28;20021;-69
2022/08/22 06:44:37;;;;;;;19.77;12.93;;;;;;;17.06;95.14;101543.91;5042630;28;20483;-69
2022/08/22 06:47:07;;;;;;;20.42;12.90;;;;;;;17.09;95.34;101545.34;5042558;28;20021;-69
2022/08/22 06:49:36;;;;;;;17.38;12.52;;;;;;;17.14;95.57;101547.34;5041374;28;20474;-69
2022/08/22 06:52:06;;;;;;;19.75;13.45;;;;;;;17.16;93.78;101545.13;5042189;28;20072;-69
2022/08/22 06:54:36;;;;;;;18.13;12.93;;;;;;;17.15;93.53;101549.00;5042538;28;20037;-68
2022/08/22 06:57:03;;;;;;;20.27;14.43;;;;;;;17.17;93.90;101552.34;5042139;28;20048;-69
2022/08/22 06:59:33;;;;;;;17.40;13.35;;;;;;;17.17;94.10;101555.97;5042547;28;20082;-69
2022/08/22 07:02:07;;;;;;;19.10;14.15;;;;;;;17.22;94.20;101556.03;5042244;28;20135;-69
2022/08/22 07:04:33;;;;;;;17.25;13.50;;;;;;;17.28;93.41;101562.50;5041607;28;20091;-69
2022/08/22 07:07:00;;;;;;;21.95;14.48;;;;;;;17.34;93.52;101564.25;5042434;28;20036;-69
2022/08/22 07:09:30;;;;;;;22.80;14.88;;;;;;;17.47;94.39;101574.97;5042714;28;20111;-69
2022/08/22 07:11:59;;;;;;;20.20;14.35;;;;;;;17.51;93.87;101565.03;5041865;28;20199;-69
2022/08/22 07:14:30;;;;;;;19.42;14.57;;;;;;;17.59;94.19;101572.91;5041554;28;20510;-69
2022/08/22 07:17:01;;;;;;;18.40;14.73;;;;;;;17.69;93.90;101568.53;5041354;28;20032;-69
2022/08/22 07:19:36;;;;;;;17.02;14.45;;;;;;;17.74;92.93;101569.50;5041282;28;20056;-69
2022/08/22 07:22:27;;;;;;;19.65;15.20;;;;;;;17.81;91.99;101563.72;5041760;28;20064;-69
2022/08/22 07:24:58;;;;;;;19.98;14.18;;;;;;;17.90;92.09;101567.72;5041592;28;20469;-69
2022/08/22 07:27:42;;;;;;;19.98;14.77;;;;;;;17.94;91.22;101563.28;5041816;28;20028;-69
2022/08/22 07:30:11;;;;;;;18.65;14.75;;;;;;;17.97;90.25;101568.31;5039702;28;20036;-69
2022/08/22 07:32:52;;;;;;;21.27;15.60;;;;;;;17.97;90.25;101568.31;5021821;28;20084;-69
2022/08/22 07:35:41;;;;;;;19.77;14.52;;;;;;;17.99;90.81;101563.34;5021573;28;21187;-69
2022/08/22 07:38:22;;;;;;;18.92;14.60;;;;;;;18.03;89.68;101558.94;5021367;28;20380;-68
2022/08/22 07:40:58;;;;;;;21.52;15.55;;;;;;;18.09;90.56;101563.44;5022255;28;20029;-69
2022/08/22 07:43:49;;;;;;;24.25;17.08;;;;;;;18.17;91.60;101553.78;5021542;28;20029;-69
2022/08/22 07:46:26;;;;;;;21.40;15.88;;;;;;;18.41;89.13;101554.28;5023552;28;20033;-69
2022/08/22 07:48:56;;;;;;;21.02;16.75;;;;;;;18.58;87.42;101551.34;5040257;28;20025;-69
2022/08/22 07:51:35;;;;;;;24.27;16.80;;;;;;;18.71;88.34;101555.66;5041897;28;20021;-68
2022/08/22 07:54:06;;;;;;;23.80;16.55;;;;;;;18.96;86.08;101543.81;5040553;28;20052;-69
2022/08/22 07:56:39;;;;;;;20.92;16.20;;;;;;;19.13;84.59;101548.09;5041578;28;20024;-69
2022/08/22 07:59:11;;;;;;;27.88;16.73;;;;;;;19.28;84.65;101549.28;5041010;28;20326;-69
2022/08/22 08:01:38;;;;;;;24.73;16.10;;;;;;;19.44;82.69;101537.91;5041839;28;20341;-69
2022/08/22 08:04:15;;;;;;;21.25;16.48;;;;;;;19.52;82.02;101544.91;5045876;28;20020;-69
2022/08/22 08:06:41;;;;;;;21.27;16.08;;;;;;;19.72;82.05;101532.16;5061933;28;20032;-69
2022/08/22 08:09:13;;;;;;;23.80;16.40;;;;;;;19.92;80.03;101537.78;5060415;28;20051;-69
2022/08/22 08:11:42;;;;;;;24.05;17.15;;;;;;;20.03;82.37;101544.22;5060569;28;20032;-69
2022/08/22 08:14:10;;;;;;;22.17;17.30;;;;;;;20.17;80.13;101535.03;5060626;28;20127;-69
2022/08/22 08:16:55;;;;;;;;;;;;;;;20.33;79.01;101529.47;5061797;28;20027;-69
2022/08/22 08:19:21;;;;;;;25.65;16.98;;;;;;;20.12;79.05;101523.00;5060012;28;19923;-69
2022/08/22 08:21:52;;;;;;;20.85;16.38;;;;;;;20.24;79.58;101528.34;5042995;28;20415;-69
2022/08/22 08:24:29;;;;;;;22.10;16.02;;;;;;;20.31;80.48;101517.72;5040728;28;20025;-69
2022/08/22 08:29:54;;;;;;;23.23;17.23;;;;;;;20.50;81.53;101524.44;5040741;28;20036;-69
2022/08/22 08:32:22;;;;;;;25.27;16.75;;;;;;;20.66;78.53;101516.88;5041355;28;20100;-69
2022/08/22 08:34:48;;;;;;;23.35;16.95;;;;;;;20.93;79.16;101513.72;5039953;28;20312;-69
2022/08/22 08:37:15;;;;;;;19.35;14.27;;;;;;;21.15;75.86;101508.63;5036613;28;20064;-69
2022/08/22 08:39:55;;;;;;;21.85;14.75;;;;;;;21.44;75.58;101519.13;5041138;28;20029;-69
2022/08/22 08:45:47;;;;;;;21.27;13.85;;;;;;;22.24;72.33;101510.50;5040597;28;20056;-69
2022/08/22 08:48:23;;;;;;;19.98;13.23;;;;;;;22.40;70.57;101514.00;5040971;28;20112;-69
2022/08/22 08:50:58;;;;;;;18.10;11.77;;;;;;;22.66;68.76;101514.63;5040011;28;20511;-68
2022/08/22 08:53:39;;;;;;;20.10;10.65;;;;;;;22.97;69.45;101517.94;5059037;28;20217;-69
2022/08/22 08:56:20;;;;;;;17.25;11.18;;;;;;;23.33;66.59;101509.09;5060799;28;20029;-69
2022/08/22 08:59:24;;;;;;;13.38;8.25;;;;;;;23.71;59.09;101508.00;5061163;28;20111;-69
2022/08/22 09:02:19;;;;;;;14.63;7.55;;;;;;;23.66;60.10;101508.06;5064277;28;20024;-68
2022/08/22 09:05:05;;;;;;;16.08;9.45;;;;;;;23.89;63.08;101506.34;5063568;28;20040;-69
2022/08/22 09:07:34;;;;;;;13.63;8.93;;;;;;;24.12;62.54;101498.09;5052503;28;20439;-69
2022/08/22 09:10:27;;;;;;;18.95;10.50;;;;;;;24.36;64.38;101503.63;5024875;28;20034;-69
2022/08/22 09:13:25;;;;;;;16.35;6.90;;;;;;;24.71;58.40;101502.97;5024013;28;20116;-69
2022/08/22 09:16:08;;;;;;;18.30;7.53;;;;;;;24.41;57.83;101503.53;5023680;28;20021;-68
2022/08/22 09:19:00;;;;;;;13.70;7.47;;;;;;;24.16;59.59;101497.19;5024881;28;20033;-69
2022/08/22 09:21:35;;;;;;;15.02;6.85;;;;;;;24.01;59.97;101497.44;5024609;28;20037;-69
2022/08/22 09:24:10;;;;;;;14.40;6.20;;;;;;;23.92;59.21;101496.47;5024108;28;20117;-69
2022/08/22 09:26:49;;;;;;;14.15;6.80;;;;;;;23.94;59.00;101492.22;5042552;28;20347;-69
2022/08/22 09:29:41;;;;;;;11.05;5.80;;;;;;;23.92;59.26;101499.28;5025942;28;20033;-69
2022/08/22 09:32:41;;;;;;;11.77;5.93;;;;;;;23.81;58.06;101493.81;5044570;28;20036;-69
2022/08/22 09:35:20;;;;;;;12.90;5.80;;;;;;;23.83;58.18;101496.34;5042694;28;20071;-69
2022/08/22 09:38:06;;;;;;;15.13;6.15;;;;;;;23.81;59.38;101495.78;5044590;28;20025;-69
2022/08/22 09:40:42;;;;;;;13.63;5.95;;;;;;;23.77;58.53;101497.53;5043864;28;20079;-69
2022/08/22 09:43:14;;;;;;;13.77;5.47;;;;;;;23.66;57.87;101499.66;5052147;28;20036;-69
2022/08/22 09:46:01;;;;;;;12.27;5.57;;;;;;;23.65;58.93;101494.38;5063895;28;20032;-69
2022/08/22 09:48:41;;;;;;;13.38;6.43;;;;;;;23.53;57.08;101492.81;5063419;28;20028;-69
2022/08/22 09:51:21;;;;;;;13.27;5.35;;;;;;;23.59;57.34;101498.34;5064213;28;20110;-69
2022/08/22 09:53:59;;;;;;;15.77;5.95;;;;;;;23.64;57.13;101495.50;5063714;28;20221;-68
2022/08/22 09:56:37;;;;;;;10.60;4.82;;;;;;;23.77;57.88;101492.78;5045551;28;20399;-69
2022/08/22 09:59:11;;;;;;;13.20;4.93;;;;;;;23.99;54.55;101482.91;5062979;28;20078;-70
2022/08/22 10:02:14;;;;;;;10.80;4.15;;;;;;;24.18;53.69;101492.13;5030182;28;20025;-69
2022/08/22 10:05:18;;;;;;;9.40;3.90;;;;;;;24.33;53.15;101494.66;5020558;28;20107;-69
2022/08/22 10:08:05;;;;;;;13.48;4.30;;;;;;;24.85;53.70;101489.78;4980499;28;20521;-69
2022/08/22 10:10:40;;;;;;;10.20;4.00;;;;;;;25.45;50.50;101486.00;5020755;28;20033;-69
2022/08/22 10:13:23;;;;;;;15.70;4.65;;;;;;;25.92;49.82;101480.16;5022190;28;20539;-69
2022/08/22 10:16:11;;;;;;;14.45;5.10;;;;;;;26.25;49.90;101475.09;5024206;28;20091;-68
2022/08/22 10:18:42;;;;;;;13.77;4.32;;;;;;;26.59;47.53;101478.13;5039549;28;20044;-69
2022/08/22 10:21:19;;;;;;;13.60;4.38;;;;;;;27.45;46.01;101481.59;5043039;28;20036;-69
2022/08/22 10:23:53;;;;;;;12.40;4.13;;;;;;;28.52;43.39;101478.09;5043242;28;20017;-69
2022/08/22 10:26:40;;;;;;;10.50;3.72;;;;;;;28.62;42.03;101472.06;5043638;28;20378;-69
2022/08/22 10:29:38;;;;;;;10.52;3.45;;;;;;;29.02;42.06;101466.09;5043458;28;20059;-69
2022/08/22 10:32:24;;;;;;;10.95;3.67;;;;;;;28.84;39.98;101469.00;5026950;28;20021;-69
2022/08/22 10:34:56;;;;;;;12.98;3.83;;;;;;;29.04;38.68;101460.91;5046447;28;20021;-69
2022/08/22 10:37:29;;;;;;;13.23;4.80;;;;;;;28.94;38.91;101457.34;5062868;28;20044;-69
2022/08/22 10:40:28;;;;;;;10.88;3.78;;;;;;;28.84;41.77;101470.97;5062484;28;20036;-68
2022/08/22 10:43:01;;;;;;;9.73;4.50;;;;;;;28.65;39.97;101465.75;5059054;28;20044;-69
2022/08/22 10:45:36;;;;;;;13.48;4.38;;;;;;;29.00;40.79;101457.13;5062382;28;20024;-69
2022/08/22 10:48:04;;;;;;;11.57;4.60;;;;;;;29.15;39.56;101459.38;5062621;28;20033;-68
2022/08/22 10:50:54;;;;;;;15.38;4.35;;;;;;;29.95;41.02;101445.09;5061600;28;20116;-68
2022/08/22 10:53:41;;;;;;;10.27;3.30;;;;;;;29.75;40.20;101451.63;5051631;28;20210;-69
2022/08/22 10:56:24;;;;;;;12.57;3.30;;;;;;;29.33;39.35;101458.06;5021926;28;20408;-69
2022/08/22 10:58:57;;;;;;;11.82;3.55;;;;;;;28.81;38.46;101452.69;5023163;28;20022;-69
2022/08/22 11:01:28;;;;;;;10.23;3.50;;;;;;;29.28;37.58;101449.78;5022626;28;20056;-69
2022/08/22 11:04:09;;;;;;;8.98;2.88;;;;;;;30.46;35.83;101452.28;5021709;28;20026;-69
2022/08/22 11:06:45;;;;;;;16.17;3.55;;;;;;;32.29;33.38;101447.50;5022181;28;20025;-68
2022/08/22 11:09:22;;;;;;;14.55;4.57;;;;;;;32.56;32.90;101437.28;5021716;28;20049;-68
2022/08/22 11:12:01;;;;;;;12.32;3.72;;;;;;;32.91;34.37;101442.25;5021798;28;20033;-68
2022/08/22 11:14:55;;;;;;;13.25;3.85;;;;;;;32.75;34.65;101440.22;5022401;28;20044;-68
2022/08/22 11:17:58;;;;;;;9.95;2.80;;;;;;;31.52;34.68;101448.47;5022399;28;20048;-68
2022/08/22 11:21:02;;;;;;;11.90;4.47;;;;;;;30.36;37.03;101444.19;5021428;28;20393;-68
2022/08/22 11:24:00;;;;;;;8.77;2.97;;;;;;;29.77;37.89;101438.78;4990687;28;20065;-68
2022/08/22 11:26:42;;;;;;;9.30;3.00;;;;;;;29.03;38.58;101440.28;5022032;28;20087;-68
2022/08/22 11:29:43;;;;;;;10.32;3.20;;;;;;;28.56;39.44;101440.34;5049266;28;20104;-68
2022/08/22 11:32:08;;;;;;;12.07;2.85;;;;;;;28.06;40.55;101431.63;5060648;28;20075;-68
2022/08/22 11:35:06;;;;;;;11.47;3.53;;;;;;;27.81;39.17;101430.50;5061419;28;20060;-68
2022/08/22 11:38:23;;;;;;;10.38;3.00;;;;;;;27.51;41.56;101426.66;5027341;28;20113;-68
2022/08/22 11:41:11;;;;;;;8.52;3.00;;;;;;;26.95;41.67;101431.19;5000138;28;20030;-68
2022/08/22 11:43:55;;;;;;;13.00;3.45;;;;;;;26.98;43.18;101434.19;5059467;28;20029;-68
2022/08/22 11:46:27;;;;;;;9.93;3.00;;;;;;;26.62;42.00;101428.78;5039107;28;20562;-68
2022/08/22 11:48:59;;;;;;;11.73;3.17;;;;;;;26.61;42.56;101427.94;5040225;28;20045;-69
2022/08/22 11:51:56;;;;;;;10.98;3.22;;;;;;;26.89;43.68;101431.34;5041235;28;20064;-68
2022/08/22 11:54:30;;;;;;;10.25;3.63;;;;;;;26.77;43.56;101421.88;5041376;28;20025;-68
2022/08/22 11:57:06;;;;;;;13.95;3.63;;;;;;;26.90;43.16;101423.72;5041481;28;20025;-68
2022/08/22 12:00:01;;;;;;;15.55;3.70;;;;;;;26.99;43.67;101426.56;5041815;28;20024;-68
2022/08/22 12:03:05;;;;;;;13.82;3.75;;;;;;;27.00;44.42;101428.22;5038789;28;20096;-68
2022/08/22 12:05:41;;;;;;;11.20;3.42;;;;;;;26.75;43.49;101416.53;5040117;28;20127;-68
2022/08/22 12:08:20;;;;;;;12.50;4.03;;;;;;;26.74;43.88;101426.16;5040809;28;20464;-68
2022/08/22 12:11:00;;;;;;;15.88;3.65;;;;;;;26.58;42.35;101422.13;5041047;28;20044;-68
2022/08/22 12:13:25;;;;;;;11.95;3.15;;;;;;;26.56;43.88;101430.03;5041660;28;20086;-69
2022/08/22 12:16:03;;;;;;;11.50;2.97;;;;;;;26.35;42.34;101432.56;5040624;28;20025;-68
2022/08/22 12:18:36;;;;;;;12.63;3.70;;;;;;;26.27;42.18;101425.75;5039718;28;20051;-68
2022/08/22 12:21:23;;;;;;;13.52;4.45;;;;;;;26.27;42.03;101422.94;5040859;28;20041;-68